Janesville Atmospheric Data: 04/18/2019 Summary  Detailed Graphs  Station List

  Temperature     Wind Precipitation Visibility
Timestamp Air Wet
Bulb
Dew-
point
24-hr
Max
24-hr
Min
Relative
Humidity
Atmospheric
Pressure
Avg
Speed
Avg
Dir
Spot
Speed
Spot
Dir
Max
Speed
Max
Dir
  Rate Situation Start End 1 hr 3 hr 6 hr 12 hr 24 hr   Situation
Date Time °F °F °F °F °F % in Hg mph ° mph ° mph ° Y/N in/hr text Date Time Date Time in in in in in mi text
04/18/2019 12:13 AM 45.68 42.08 37.94 67.28 30.74 73.0 Not Reported 3.80 W 4.70 W 5.59 SW No 0.000 No Precipitation 04/16/2019 05:52 AM 04/16/2019 05:57 AM 0.000 0.000 0.000 0.000 0.000 Not Reported Not Reported
04/18/2019 12:28 AM 45.32 41.72 37.58 67.28 30.74 74.0 Not Reported 5.59 SW 5.37 SW 6.26 SW No 0.000 No Precipitation 04/16/2019 05:52 AM 04/16/2019 05:57 AM 0.000 0.000 0.000 0.000 0.000 Not Reported Not Reported
04/18/2019 12:43 AM 44.60 41.54 38.12 67.28 30.74 77.0 Not Reported 3.13 W 2.46 W 5.59 SW No 0.000 No Precipitation 04/16/2019 05:52 AM 04/16/2019 05:57 AM 0.000 0.000 0.000 0.000 0.000 Not Reported Not Reported
04/18/2019 12:58 AM 44.42 41.54 37.94 67.28 30.74 78.0 Not Reported 1.57 NW 3.13 W 3.58 SW No 0.000 No Precipitation 04/16/2019 05:52 AM 04/16/2019 05:57 AM 0.000 0.000 0.000 0.000 0.000 Not Reported Not Reported
04/18/2019 01:13 AM 44.06 41.00 37.76 67.28 30.74 77.0 Not Reported 5.14 SW 5.37 SW 5.14 W No 0.000 No Precipitation 04/16/2019 05:52 AM 04/16/2019 05:57 AM 0.000 0.000 0.000 0.000 0.000 Not Reported Not Reported
04/18/2019 01:28 AM 43.88 41.00 37.40 67.28 30.74 78.0 Not Reported 2.46 W 2.68 W 4.47 SW No 0.000 No Precipitation 04/16/2019 05:52 AM 04/16/2019 05:57 AM 0.000 0.000 0.000 0.000 0.000 Not Reported Not Reported
04/18/2019 01:43 AM 42.80 40.46 37.58 67.28 30.74 81.0 Not Reported 2.91 W 2.68 W 3.80 W No 0.000 No Precipitation 04/16/2019 05:52 AM 04/16/2019 05:57 AM 0.000 0.000 0.000 0.000 0.000 Not Reported Not Reported
04/18/2019 01:58 AM 43.52 40.82 37.40 67.28 30.74 79.0 Not Reported 4.25 W 2.91 SW 4.47 SW No 0.000 No Precipitation 04/16/2019 05:52 AM 04/16/2019 05:57 AM 0.000 0.000 0.000 0.000 0.000 Not Reported Not Reported
04/18/2019 02:13 AM 43.16 40.46 37.40 67.28 30.74 80.0 Not Reported 2.91 W 2.91 NW 3.80 SW No 0.000 No Precipitation 04/16/2019 05:52 AM 04/16/2019 05:57 AM 0.000 0.000 0.000 0.000 0.000 Not Reported Not Reported
04/18/2019 02:28 AM 42.62 40.28 37.40 67.28 30.74 82.0 Not Reported 2.68 NW 2.91 NW 3.36 NW No 0.000 No Precipitation 04/16/2019 05:52 AM 04/16/2019 05:57 AM 0.000 0.000 0.000 0.000 0.000 Not Reported Not Reported
04/18/2019 02:43 AM 42.08 39.74 37.58 67.28 30.74 84.0 Not Reported 2.68 W 3.13 NW 3.58 W No 0.000 No Precipitation 04/16/2019 05:52 AM 04/16/2019 05:57 AM 0.000 0.000 0.000 0.000 0.000 Not Reported Not Reported
04/18/2019 02:58 AM 41.54 39.20 36.32 67.28 30.74 81.0 Not Reported 3.13 NW 2.91 W 3.36 NW No 0.000 No Precipitation 04/16/2019 05:52 AM 04/16/2019 05:57 AM 0.000 0.000 0.000 0.000 0.000 Not Reported Not Reported
04/18/2019 03:13 AM 40.82 39.02 36.68 67.28 30.74 84.0 Not Reported 2.91 W 2.46 W 3.13 NW No 0.000 No Precipitation 04/16/2019 05:52 AM 04/16/2019 05:57 AM 0.000 0.000 0.000 0.000 0.000 Not Reported Not Reported
04/18/2019 03:28 AM 40.64 39.02 36.86 67.28 30.74 85.0 Not Reported 2.24 W 2.46 SW 3.13 W No 0.000 No Precipitation 04/16/2019 05:52 AM 04/16/2019 05:57 AM 0.000 0.000 0.000 0.000 0.000 Not Reported Not Reported
04/18/2019 03:43 AM 40.46 38.84 36.68 67.28 30.74 86.0 Not Reported 2.68 W 2.46 W 3.13 W No 0.000 No Precipitation 04/16/2019 05:52 AM 04/16/2019 05:57 AM 0.000 0.000 0.000 0.000 0.000 Not Reported Not Reported
04/18/2019 03:58 AM 40.64 39.02 36.50 67.28 30.74 85.0 Not Reported 0.89 S 1.79 SW 2.24 W No 0.000 No Precipitation 04/16/2019 05:52 AM 04/16/2019 05:57 AM 0.000 0.000 0.000 0.000 0.000 Not Reported Not Reported
04/18/2019 04:13 AM 40.10 38.48 36.68 67.28 30.74 87.0 Not Reported 4.03 W 4.92 SW 3.36 W No 0.000 No Precipitation 04/16/2019 05:52 AM 04/16/2019 05:57 AM 0.000 0.000 0.000 0.000 0.000 Not Reported Not Reported
04/18/2019 04:28 AM 40.10 38.30 36.32 67.28 30.74 86.0 Not Reported 2.68 SW 2.01 SW 4.92 SW No 0.000 No Precipitation 04/16/2019 05:52 AM 04/16/2019 05:57 AM 0.000 0.000 0.000 0.000 0.000 Not Reported Not Reported
04/18/2019 04:43 AM 39.38 37.94 36.14 67.28 30.74 87.0 Not Reported 2.91 W 3.58 W 3.36 W No 0.000 No Precipitation 04/16/2019 05:52 AM 04/16/2019 05:57 AM 0.000 0.000 0.000 0.000 0.000 Not Reported Not Reported
04/18/2019 04:58 AM 39.92 38.48 36.68 67.28 30.74 87.0 Not Reported 4.70 SW 4.92 SW 4.92 SW No 0.000 No Precipitation 04/16/2019 05:52 AM 04/16/2019 05:57 AM 0.000 0.000 0.000 0.000 0.000 Not Reported Not Reported
04/18/2019 05:13 AM 40.28 38.66 36.50 67.28 30.74 86.0 Not Reported 2.46 W 1.34 W 4.92 SW No 0.000 No Precipitation 04/16/2019 05:52 AM 04/16/2019 05:57 AM 0.000 0.000 0.000 0.000 0.000 Not Reported Not Reported
04/18/2019 05:28 AM 39.20 37.76 36.14 67.28 30.74 87.0 Not Reported 1.12 W 1.79 W 3.36 W No 0.000 No Precipitation 04/16/2019 05:52 AM 04/16/2019 05:57 AM 0.000 0.000 0.000 0.000 0.000 Not Reported Not Reported
04/18/2019 05:43 AM 39.20 37.76 35.96 67.28 30.74 87.0 Not Reported 2.46 W 2.24 W 2.46 W No 0.000 No Precipitation 04/16/2019 05:52 AM 04/16/2019 05:57 AM 0.000 0.000 0.000 0.000 0.000 Not Reported Not Reported
04/18/2019 05:58 AM 39.02 37.76 36.32 67.28 30.74 90.0 Not Reported 2.68 SW 2.46 SW 3.13 SW No 0.000 No Precipitation 04/16/2019 05:52 AM 04/16/2019 05:57 AM 0.000 0.000 0.000 0.000 0.000 Not Reported Not Reported
04/18/2019 06:13 AM 38.66 37.40 35.96 67.28 30.74 89.0 Not Reported 3.13 W 2.68 W 2.91 SW No 0.000 No Precipitation 04/16/2019 05:52 AM 04/16/2019 05:57 AM 0.000 0.000 0.000 0.000 0.000 Not Reported Not Reported
04/18/2019 06:28 AM 38.66 37.40 35.78 67.28 30.74 89.0 Not Reported 3.36 SW 3.58 SW 3.80 SW No 0.000 No Precipitation 04/16/2019 05:52 AM 04/16/2019 05:57 AM 0.000 0.000 0.000 0.000 0.000 Not Reported Not Reported
04/18/2019 06:43 AM 38.48 37.40 35.78 67.28 30.74 90.0 Not Reported 3.80 SW 4.25 SW 3.58 SW No 0.000 No Precipitation 04/16/2019 05:52 AM 04/16/2019 05:57 AM 0.000 0.000 0.000 0.000 0.000 Not Reported Not Reported
04/18/2019 06:58 AM 38.30 37.04 35.60 67.28 30.74 89.0 Not Reported 2.91 SW 2.91 SW 3.58 SW No 0.000 No Precipitation 04/16/2019 05:52 AM 04/16/2019 05:57 AM 0.000 0.000 0.000 0.000 0.000 Not Reported Not Reported
04/18/2019 07:13 AM 38.66 37.40 35.96 67.28 30.74 89.0 Not Reported 2.68 SW 4.03 SW 2.91 SW No 0.000 No Precipitation 04/16/2019 05:52 AM 04/16/2019 05:57 AM 0.000 0.000 0.000 0.000 0.000 Not Reported Not Reported
04/18/2019 07:28 AM 38.48 37.22 35.78 67.28 30.74 90.0 Not Reported 1.57 W 2.24 W 4.03 SW No 0.000 No Precipitation 04/16/2019 05:52 AM 04/16/2019 05:57 AM 0.000 0.000 0.000 0.000 0.000 Not Reported Not Reported
04/18/2019 07:43 AM 39.02 37.76 35.78 67.28 30.74 89.0 Not Reported 1.34 W 1.12 W 3.58 W No 0.000 No Precipitation 04/16/2019 05:52 AM 04/16/2019 05:57 AM 0.000 0.000 0.000 0.000 0.000 Not Reported Not Reported
04/18/2019 07:58 AM 40.82 39.02 36.86 67.28 30.74 85.0 Not Reported 1.34 W 1.79 W 2.68 SW No 0.000 No Precipitation 04/16/2019 05:52 AM 04/16/2019 05:57 AM 0.000 0.000 0.000 0.000 0.000 Not Reported Not Reported
04/18/2019 08:13 AM 44.06 41.54 38.48 67.28 30.74 81.0 Not Reported 0.00 N 0.00 W 2.24 W No 0.000 No Precipitation 04/16/2019 05:52 AM 04/16/2019 05:57 AM 0.000 0.000 0.000 0.000 0.000 Not Reported Not Reported
04/18/2019 08:28 AM 46.58 43.34 39.74 67.28 30.74 76.0 Not Reported 0.00 NW 0.00 W 1.34 N No 0.000 No Precipitation 04/16/2019 05:52 AM 04/16/2019 05:57 AM 0.000 0.000 0.000 0.000 0.000 Not Reported Not Reported
04/18/2019 08:43 AM 49.28 45.14 40.46 67.28 30.74 72.0 Not Reported 1.12 W 0.22 W 0.89 W No 0.000 No Precipitation 04/16/2019 05:52 AM 04/16/2019 05:57 AM 0.000 0.000 0.000 0.000 0.000 Not Reported Not Reported
04/18/2019 08:58 AM 53.96 46.40 39.02 67.28 30.74 56.0 Not Reported 0.45 NE 1.12 NE 0.67 N No 0.000 No Precipitation 04/16/2019 05:52 AM 04/16/2019 05:57 AM 0.000 0.000 0.000 0.000 0.000 Not Reported Not Reported
04/18/2019 09:13 AM 54.32 46.76 38.66 67.28 30.74 56.0 Not Reported 1.57 NE 2.24 NE 2.46 NE No 0.000 No Precipitation 04/16/2019 05:52 AM 04/16/2019 05:57 AM 0.000 0.000 0.000 0.000 0.000 Not Reported Not Reported
04/18/2019 09:28 AM 53.96 46.76 38.66 67.28 30.74 57.0 Not Reported 2.91 NE 2.01 E 4.47 E No 0.000 No Precipitation 04/16/2019 05:52 AM 04/16/2019 05:57 AM 0.000 0.000 0.000 0.000 0.000 Not Reported Not Reported
04/18/2019 09:43 AM 53.42 46.22 39.20 67.28 30.74 57.0 Not Reported 3.80 E 2.91 E 4.92 E No 0.000 No Precipitation 04/16/2019 05:52 AM 04/16/2019 05:57 AM 0.000 0.000 0.000 0.000 0.000 Not Reported Not Reported
04/18/2019 09:58 AM 54.32 47.30 39.02 67.28 30.74 58.0 Not Reported 3.13 E 4.47 SE 4.25 E No 0.000 No Precipitation 04/16/2019 05:52 AM 04/16/2019 05:57 AM 0.000 0.000 0.000 0.000 0.000 Not Reported Not Reported
04/18/2019 10:13 AM 55.22 47.48 39.56 67.28 30.74 54.0 Not Reported 3.80 E 4.47 SE 4.92 SE No 0.000 No Precipitation 04/16/2019 05:52 AM 04/16/2019 05:57 AM 0.000 0.000 0.000 0.000 0.000 Not Reported Not Reported
04/18/2019 10:28 AM 56.48 48.20 39.92 67.28 30.74 53.0 Not Reported 3.80 SE 4.03 SE 5.82 E No 0.000 No Precipitation 04/16/2019 05:52 AM 04/16/2019 05:57 AM 0.000 0.000 0.000 0.000 0.000 Not Reported Not Reported
04/18/2019 10:43 AM 57.20 48.92 41.00 67.28 30.74 54.0 Not Reported 3.58 E 3.58 SE 6.26 E No 0.000 No Precipitation 04/16/2019 05:52 AM 04/16/2019 05:57 AM 0.000 0.000 0.000 0.000 0.000 Not Reported Not Reported
04/18/2019 10:58 AM 57.56 49.28 40.82 67.28 30.74 54.0 Not Reported 3.36 SE 3.13 SE 5.59 SE No 0.000 No Precipitation 04/16/2019 05:52 AM 04/16/2019 05:57 AM 0.000 0.000 0.000 0.000 0.000 Not Reported Not Reported
04/18/2019 11:13 AM 59.18 49.46 41.54 67.28 30.74 49.0 Not Reported 3.13 SE 5.59 SE 5.59 SE No 0.000 No Precipitation 04/16/2019 05:52 AM 04/16/2019 05:57 AM 0.000 0.000 0.000 0.000 0.000 Not Reported Not Reported
04/18/2019 11:28 AM 60.44 49.82 40.46 67.28 30.74 45.0 Not Reported 4.03 SE 5.59 S 5.59 E No 0.000 No Precipitation 04/16/2019 05:52 AM 04/16/2019 05:57 AM 0.000 0.000 0.000 0.000 0.000 Not Reported Not Reported
04/18/2019 11:43 AM 61.16 49.28 38.12 67.28 30.74 40.0 Not Reported 5.82 SE 6.71 SE 7.38 E No 0.000 No Precipitation 04/16/2019 05:52 AM 04/16/2019 05:57 AM 0.000 0.000 0.000 0.000 0.000 Not Reported Not Reported
04/18/2019 11:58 AM 60.98 49.46 36.86 67.28 30.74 42.0 Not Reported 5.14 E 6.26 E 10.07 E No 0.000 No Precipitation 04/16/2019 05:52 AM 04/16/2019 05:57 AM 0.000 0.000 0.000 0.000 0.000 Not Reported Not Reported
04/18/2019 12:13 PM 60.98 48.92 37.04 67.28 30.74 39.0 Not Reported 7.83 E 6.49 SE 10.07 SE No 0.000 No Precipitation 04/16/2019 05:52 AM 04/16/2019 05:57 AM 0.000 0.000 0.000 0.000 0.000 Not Reported Not Reported
04/18/2019 12:28 PM 61.70 48.92 33.80 67.28 30.74 37.0 Not Reported 6.26 E 8.50 E 9.62 SE No 0.000 No Precipitation 04/16/2019 05:52 AM 04/16/2019 05:57 AM 0.000 0.000 0.000 0.000 0.000 Not Reported Not Reported
04/18/2019 12:43 PM 62.42 48.92 35.24 67.28 30.74 35.0 Not Reported 8.05 E 9.62 SE 10.96 E No 0.000 No Precipitation 04/16/2019 05:52 AM 04/16/2019 05:57 AM 0.000 0.000 0.000 0.000 0.000 Not Reported Not Reported
04/18/2019 12:58 PM 61.88 48.74 36.50 67.28 30.74 36.0 Not Reported 8.28 SE 7.16 SE 10.29 SE No 0.000 No Precipitation 04/16/2019 05:52 AM 04/16/2019 05:57 AM 0.000 0.000 0.000 0.000 0.000 Not Reported Not Reported
04/18/2019 01:13 PM 62.96 49.82 37.04 67.28 30.74 37.0 Not Reported 6.71 E 4.03 E 9.17 SE No 0.000 No Precipitation 04/16/2019 05:52 AM 04/16/2019 05:57 AM 0.000 0.000 0.000 0.000 0.000 Not Reported Not Reported
04/18/2019 01:28 PM 64.22 50.36 37.40 67.28 30.74 35.0 Not Reported 6.04 SE 9.17 SE 10.29 SE No 0.000 No Precipitation 04/16/2019 05:52 AM 04/16/2019 05:57 AM 0.000 0.000 0.000 0.000 0.000 Not Reported Not Reported
04/18/2019 01:43 PM 64.58 50.72 36.86 67.28 30.74 35.0 Not Reported 6.49 E 3.80 SE 9.40 SE No 0.000 No Precipitation 04/16/2019 05:52 AM 04/16/2019 05:57 AM 0.000 0.000 0.000 0.000 0.000 Not Reported Not Reported
04/18/2019 01:58 PM 66.02 51.62 36.32 67.28 30.74 34.0 Not Reported 6.26 E 7.38 SE 10.07 SE No 0.000 No Precipitation 04/16/2019 05:52 AM 04/16/2019 05:57 AM 0.000 0.000 0.000 0.000 0.000 Not Reported Not Reported
04/18/2019 02:13 PM 66.56 51.26 35.78 67.28 30.74 31.0 Not Reported 8.28 E 8.72 E 10.74 E No 0.000 No Precipitation 04/16/2019 05:52 AM 04/16/2019 05:57 AM 0.000 0.000 0.000 0.000 0.000 Not Reported Not Reported
04/18/2019 02:28 PM 67.64 51.62 35.96 67.28 30.74 30.0 Not Reported 8.28 SE 7.61 E 10.29 E No 0.000 No Precipitation 04/16/2019 05:52 AM 04/16/2019 05:57 AM 0.000 0.000 0.000 0.000 0.000 Not Reported Not Reported
04/18/2019 02:43 PM 68.00 52.16 35.24 67.28 30.74 31.0 Not Reported 6.93 SE 8.28 E 8.72 E No 0.000 No Precipitation 04/16/2019 05:52 AM 04/16/2019 05:57 AM 0.000 0.000 0.000 0.000 0.000 Not Reported Not Reported
04/18/2019 02:58 PM 68.72 51.98 35.06 67.28 30.74 29.0 Not Reported 7.16 SE 10.51 E 10.51 E No 0.000 No Precipitation 04/16/2019 05:52 AM 04/16/2019 05:57 AM 0.000 0.000 0.000 0.000 0.000 Not Reported Not Reported
04/18/2019 03:13 PM 69.26 52.34 34.88 67.28 30.74 28.0 Not Reported 8.50 E 5.82 E 10.96 E No 0.000 No Precipitation 04/16/2019 05:52 AM 04/16/2019 05:57 AM 0.000 0.000 0.000 0.000 0.000 Not Reported Not Reported
04/18/2019 03:28 PM 70.88 53.06 37.04 67.28 30.74 27.0 Not Reported 6.04 E 6.71 E 8.72 SE No 0.000 No Precipitation 04/16/2019 05:52 AM 04/16/2019 05:57 AM 0.000 0.000 0.000 0.000 0.000 Not Reported Not Reported
04/18/2019 03:43 PM 70.52 52.88 35.06 67.28 30.74 27.0 Not Reported 6.71 SE 7.16 E 10.07 SE No 0.000 No Precipitation 04/16/2019 05:52 AM 04/16/2019 05:57 AM 0.000 0.000 0.000 0.000 0.000 Not Reported Not Reported
04/18/2019 03:58 PM 71.06 52.70 33.98 67.28 30.74 25.0 Not Reported 7.38 E 6.71 E 9.40 E No 0.000 No Precipitation 04/16/2019 05:52 AM 04/16/2019 05:57 AM 0.000 0.000 0.000 0.000 0.000 Not Reported Not Reported
04/18/2019 04:13 PM 71.78 53.96 36.68 67.28 30.74 28.0 Not Reported 5.82 E 4.03 SE 8.72 E No 0.000 No Precipitation 04/16/2019 05:52 AM 04/16/2019 05:57 AM 0.000 0.000 0.000 0.000 0.000 Not Reported Not Reported
04/18/2019 04:28 PM 71.78 52.70 33.98 67.28 30.74 24.0 Not Reported 5.14 SE 7.16 E 9.62 SE No 0.000 No Precipitation 04/16/2019 05:52 AM 04/16/2019 05:57 AM 0.000 0.000 0.000 0.000 0.000 Not Reported Not Reported
04/18/2019 04:43 PM 72.68 53.60 36.50 67.28 30.74 24.0 Not Reported 5.37 E 5.82 SE 7.83 E No 0.000 No Precipitation 04/16/2019 05:52 AM 04/16/2019 05:57 AM 0.000 0.000 0.000 0.000 0.000 Not Reported Not Reported
04/18/2019 04:58 PM 73.04 53.60 34.34 67.28 30.74 24.0 Not Reported 2.68 E 3.80 SE 6.49 SE No 0.000 No Precipitation 04/16/2019 05:52 AM 04/16/2019 05:57 AM 0.000 0.000 0.000 0.000 0.000 Not Reported Not Reported
04/18/2019 05:13 PM 72.50 53.24 33.44 67.28 30.74 24.0 Not Reported 4.25 SE 4.92 E 6.93 E No 0.000 No Precipitation 04/16/2019 05:52 AM 04/16/2019 05:57 AM 0.000 0.000 0.000 0.000 0.000 Not Reported Not Reported
04/18/2019 05:28 PM 72.68 53.78 34.88 67.28 30.74 25.0 Not Reported 4.92 NE 4.25 SE 7.38 E No 0.000 No Precipitation 04/16/2019 05:52 AM 04/16/2019 05:57 AM 0.000 0.000 0.000 0.000 0.000 Not Reported Not Reported
04/18/2019 05:43 PM 73.58 53.78 35.96 67.28 30.74 23.0 Not Reported 5.14 SE 8.05 SE 7.16 E No 0.000 No Precipitation 04/16/2019 05:52 AM 04/16/2019 05:57 AM 0.000 0.000 0.000 0.000 0.000 Not Reported Not Reported
04/18/2019 05:58 PM 74.48 54.14 33.98 74.30 37.76 23.0 Not Reported 2.01 NE 2.24 NE 6.71 SE No 0.000 No Precipitation 04/16/2019 05:52 AM 04/16/2019 05:57 AM 0.000 0.000 0.000 0.000 0.000 Not Reported Not Reported
04/18/2019 06:13 PM 73.94 53.78 32.72 74.30 37.76 22.0 Not Reported 3.58 SE 2.91 SE 6.26 SE No 0.000 No Precipitation 04/16/2019 05:52 AM 04/16/2019 05:57 AM 0.000 0.000 0.000 0.000 0.000 Not Reported Not Reported
04/18/2019 06:28 PM 75.56 54.14 33.98 74.30 37.76 21.0 Not Reported 2.24 S 1.12 SE 4.70 SE No 0.000 No Precipitation 04/16/2019 05:52 AM 04/16/2019 05:57 AM 0.000 0.000 0.000 0.000 0.000 Not Reported Not Reported
04/18/2019 06:43 PM 73.58 53.42 32.72 74.30 37.76 22.0 Not Reported 4.03 SE 0.45 SE 4.92 E No 0.000 No Precipitation 04/16/2019 05:52 AM 04/16/2019 05:57 AM 0.000 0.000 0.000 0.000 0.000 Not Reported Not Reported
04/18/2019 06:58 PM 73.94 53.60 33.26 74.30 37.76 22.0 Not Reported 3.13 SE 1.57 E 4.70 E No 0.000 No Precipitation 04/16/2019 05:52 AM 04/16/2019 05:57 AM 0.000 0.000 0.000 0.000 0.000 Not Reported Not Reported
04/18/2019 07:13 PM 76.28 55.04 33.44 74.30 37.76 21.0 Not Reported 1.12 SW 0.89 SW 1.57 NW No 0.000 No Precipitation 04/16/2019 05:52 AM 04/16/2019 05:57 AM 0.000 0.000 0.000 0.000 0.000 Not Reported Not Reported
04/18/2019 07:28 PM 74.12 53.60 33.26 74.30 37.76 22.0 Not Reported 2.01 SW 0.89 W 3.80 SE No 0.000 No Precipitation 04/16/2019 05:52 AM 04/16/2019 05:57 AM 0.000 0.000 0.000 0.000 0.000 Not Reported Not Reported
04/18/2019 07:43 PM 74.48 54.32 34.34 74.30 37.76 23.0 Not Reported 0.22 SW 2.91 S 2.01 W No 0.000 No Precipitation 04/16/2019 05:52 AM 04/16/2019 05:57 AM 0.000 0.000 0.000 0.000 0.000 Not Reported Not Reported
04/18/2019 07:58 PM 71.24 53.42 36.50 74.30 37.76 27.0 Not Reported 4.92 S 4.70 SW 5.59 S No 0.000 No Precipitation 04/16/2019 05:52 AM 04/16/2019 05:57 AM 0.000 0.000 0.000 0.000 0.000 Not Reported Not Reported
04/18/2019 08:13 PM 67.64 54.14 42.80 74.30 37.76 39.0 Not Reported 3.80 SW 3.36 SW 4.92 S No 0.000 No Precipitation 04/16/2019 05:52 AM 04/16/2019 05:57 AM 0.000 0.000 0.000 0.000 0.000 Not Reported Not Reported
04/18/2019 08:28 PM 62.06 51.80 42.26 74.30 37.76 48.0 Not Reported 5.14 SW 4.92 SW 5.37 SW No 0.000 No Precipitation 04/16/2019 05:52 AM 04/16/2019 05:57 AM 0.000 0.000 0.000 0.000 0.000 Not Reported Not Reported
04/18/2019 08:43 PM 59.54 50.18 41.54 74.30 37.76 51.0 Not Reported 5.59 SW 6.26 W 5.82 SW No 0.000 No Precipitation 04/16/2019 05:52 AM 04/16/2019 05:57 AM 0.000 0.000 0.000 0.000 0.000 Not Reported Not Reported
04/18/2019 08:58 PM 58.64 50.18 42.62 74.30 37.76 54.0 Not Reported 3.36 NW 3.13 NW 6.26 SW No 0.000 No Precipitation 04/16/2019 05:52 AM 04/16/2019 05:57 AM 0.000 0.000 0.000 0.000 0.000 Not Reported Not Reported
04/18/2019 09:13 PM 56.48 49.10 42.26 74.30 37.76 58.0 Not Reported 2.24 W 2.24 W 4.70 NW No 0.000 No Precipitation 04/16/2019 05:52 AM 04/16/2019 05:57 AM 0.000 0.000 0.000 0.000 0.000 Not Reported Not Reported
04/18/2019 09:28 PM 54.32 48.20 42.44 74.30 37.76 64.0 Not Reported 2.46 SW 2.24 SW 2.91 SW No 0.000 No Precipitation 04/16/2019 05:52 AM 04/16/2019 05:57 AM 0.000 0.000 0.000 0.000 0.000 Not Reported Not Reported
04/18/2019 09:43 PM 53.96 48.02 42.44 74.30 37.76 64.0 Not Reported 0.22 S 0.00 SW 2.68 W No 0.000 No Precipitation 04/16/2019 05:52 AM 04/16/2019 05:57 AM 0.000 0.000 0.000 0.000 0.000 Not Reported Not Reported
04/18/2019 09:58 PM 53.78 48.20 42.98 74.30 37.76 66.0 Not Reported 3.36 W 4.03 W 4.03 W No 0.000 No Precipitation 04/16/2019 05:52 AM 04/16/2019 05:57 AM 0.000 0.000 0.000 0.000 0.000 Not Reported Not Reported
04/18/2019 10:13 PM 53.24 47.30 41.72 74.30 37.76 64.0 Not Reported 4.47 NW 3.58 SW 5.37 SW No 0.000 No Precipitation 04/16/2019 05:52 AM 04/16/2019 05:57 AM 0.000 0.000 0.000 0.000 0.000 Not Reported Not Reported
04/18/2019 10:28 PM 51.80 46.40 40.64 74.30 37.76 66.0 Not Reported 3.58 W 3.36 SW 5.37 SW No 0.000 No Precipitation 04/16/2019 05:52 AM 04/16/2019 05:57 AM 0.000 0.000 0.000 0.000 0.000 Not Reported Not Reported
04/18/2019 10:43 PM 53.24 46.94 40.64 74.30 37.76 62.0 Not Reported 2.68 NW 2.01 N 4.92 SW No 0.000 No Precipitation 04/16/2019 05:52 AM 04/16/2019 05:57 AM 0.000 0.000 0.000 0.000 0.000 Not Reported Not Reported
04/18/2019 10:58 PM 51.62 46.04 40.46 74.30 37.76 64.0 Not Reported 5.37 SW 4.03 W 5.82 SW No 0.000 No Precipitation 04/16/2019 05:52 AM 04/16/2019 05:57 AM 0.000 0.000 0.000 0.000 0.000 Not Reported Not Reported
04/18/2019 11:13 PM 52.34 46.40 41.00 74.30 37.76 64.0 Not Reported 0.89 NW 1.34 SE 4.70 W No 0.000 No Precipitation 04/16/2019 05:52 AM 04/16/2019 05:57 AM 0.000 0.000 0.000 0.000 0.000 Not Reported Not Reported
04/18/2019 11:28 PM 50.72 45.68 40.28 74.30 37.76 67.0 Not Reported 3.36 S 2.24 S 4.03 S No 0.000 No Precipitation 04/16/2019 05:52 AM 04/16/2019 05:57 AM 0.000 0.000 0.000 0.000 0.000 Not Reported Not Reported
04/18/2019 11:43 PM 50.90 45.32 39.92 74.30 37.76 65.0 Not Reported 4.03 SW 3.13 S 2.91 S No 0.000 No Precipitation 04/16/2019 05:52 AM 04/16/2019 05:57 AM 0.000 0.000 0.000 0.000 0.000 Not Reported Not Reported
04/18/2019 11:58 PM 49.82 45.14 40.28 74.30 37.76 69.0 Not Reported 4.47 SW 4.03 SW 4.70 SW No 0.000 No Precipitation 04/16/2019 05:52 AM 04/16/2019 05:57 AM 0.000 0.000 0.000 0.000 0.000 Not Reported Not Reported